Existen múltiples avisos  Haga clik para más información

Informes METAR

 

LEZL - Sevilla, Spain
Distancia de la estación: ENE 8km
Actualización: 17/09/2014 07:00
Parcialmente nuboso
Parcialmente nuboso
 Viento de SSO
Viento: SSO 6 km/h
Temperatura: 21°C
Rocío: 20°C
Humedad: 94%
Barómetro: 1008 hPa
Nubes: Parcialmente nuboso
Visibilidad: 10 km
Detalles de las nubes: Parcialmente nuboso 213 m
2014/09/17 05:00 LEZL 170500Z 20003KT 140V240 9999 SCT007 21/20 Q1008 NOSIG
LEMO - Morón, Spain
Distancia de la estación: SE 43km
Actualización: 17/09/2014 07:20
Lluvia débil, Chubascos, Parcialmente nuboso
Lluvia débil, Chubascos, Parcialmente nuboso
 Viento de SO
Viento: SO 17 km/h
Temperatura: 20°C
Rocío: 20°C
Humedad: 100%
Barómetro: 1009 hPa
Resumen: Lluvia débil, Chubascos
Nubes: Parcialmente nuboso
Visibilidad: 7 km
Detalles de las nubes: Poco nuboso 305 m
Poco nuboso 610 m
Parcialmente nuboso 914 m
2014/09/17 05:20 LEMO 170520Z 22009KT 190V260 7000 -SHRA FEW010 FEW020TCU SCT030 20/20 Q1009 NOSIG
LEJR - Jeréz, Spain
Distancia de la estación: S 71km
Actualización: 17/09/2014 07:30
Muy nuboso
Muy nuboso
 Viento de variable
Viento: variable 4 km/h
Temperatura: 20°C
Rocío: 20°C
Humedad: 100%
Barómetro: 1009 hPa
Nubes: Muy nuboso
Visibilidad: 10 km
Detalles de las nubes: Poco nuboso 640 m
Muy nuboso 1097 m
2014/09/17 05:30 LEJR 170530Z VRB02KT 9999 FEW021 BKN036 20/20 Q1009
 
LERT - Rota, Spain
Distancia de la estación: SSO 89km
Actualización: 17/09/2014 06:03
NOT Current
Lluvia débil, Muy nuboso
Lluvia débil, Muy nuboso
 Viento de SSO
Viento: SSO 24 km/h, Racha: 43 km/h
Temperatura: 20°C
Rocío: 19°C
Humedad: 94%
Barómetro: 1008 hPa
Resumen: Lluvia débil
Nubes: Muy nuboso
Visibilidad: 7 km
Detalles de las nubes: Poco nuboso 549 m
Muy nuboso 1158 m
2014/09/17 04:03 LERT 170403Z 21013G23KT 7000 -RA FEW018 BKN038 20/19 Q1008 NOSIG
LEMG - Málaga, Spain
Distancia de la estación: ESE 157km
Actualización: 17/09/2014 07:00
Parcialmente nuboso
Parcialmente nuboso
 Viento de NO
Viento: NO 2 km/h
Temperatura: 20°C
Rocío: 16°C
Humedad: 78%
Barómetro: 1009 hPa
Nubes: Parcialmente nuboso
Visibilidad: 10 km
Detalles de las nubes: Parcialmente nuboso 1219 m
2014/09/17 05:00 LEMG 170500Z 32001KT 9999 SCT040 20/16 Q1009 NOSIG
LEBA - Córdoba, Spain
Distancia de la estación: ENE 115km
Actualización: 17/09/2014 07:15
Lluvia, Cubierto
Lluvia, Cubierto
 Viento de variable
Viento: variable 2 km/h
Temperatura: 18°C
Rocío: 18°C
Humedad: 100%
Barómetro: 1009 hPa
Resumen: Lluvia
Nubes: Cubierto
Visibilidad: 10 km
Detalles de las nubes: Cubierto 610 m
2014/09/17 05:15 LEBA 170515Z VRB01KT 9999 RA OVC020 18/18 Q1009
 
LEGR - Granada, Spain
Distancia de la estación: E 198km
Actualización: 17/09/2014 07:00
Parcialmente nuboso
Parcialmente nuboso
 Viento de calm
Viento: Calma
Temperatura: 14°C
Rocío: 9°C
Humedad: 72%
Barómetro: 1011 hPa
Nubes: Parcialmente nuboso
Visibilidad: 10 km
Detalles de las nubes: Poco nuboso 1219 m
Parcialmente nuboso 2438 m
2014/09/17 05:00 LEGR 170500Z 00000KT 9999 FEW040 SCT080 14/09 Q1011
LEAM - Almería, Spain
Distancia de la estación: E 326km
Actualización: 17/09/2014 07:00
Despejado
Despejado
 Viento de variable
Viento: variable 2 km/h
Temperatura: 20°C
Rocío: 16°C
Humedad: 78%
Barómetro: 1008 hPa
Resumen: Despejado
Visibilidad: mayor de 10 km
2014/09/17 05:00 LEAM 170500Z VRB01KT CAVOK 20/16 Q1008
LEMD - Madrid/Barajas, Spain
Distancia de la estación: NNE 402km
Actualización: 17/09/2014 07:00
Muy nuboso
Muy nuboso
 Viento de S
Viento: S 11 km/h
Temperatura: 18°C
Rocío: 13°C
Humedad: 73%
Barómetro: 1009 hPa
Nubes: Muy nuboso
Visibilidad: 10 km
Detalles de las nubes: Poco nuboso 1676 m
Muy nuboso 2134 m
2014/09/17 05:00 LEMD 170500Z 19006KT 9999 FEW055 BKN070 18/13 Q1009 TEMPO SHRA SCT030TCU
 
LEVD - Valladolid, Spain
Distancia de la estación: N 492km
Actualización: 17/09/2014 07:00
Parcialmente nuboso
Parcialmente nuboso
 Viento de S
Viento: S 7 km/h
Temperatura: 14°C
Rocío: 12°C
Humedad: 88%
Barómetro: 1007 hPa
Nubes: Parcialmente nuboso
Visibilidad: 10 km
Detalles de las nubes: Parcialmente nuboso 1463 m
2014/09/17 05:00 LEVD 170500Z 17004KT 9999 SCT048 14/12 Q1007
LEBL - Barcelona, Spain
Distancia de la estación: NE 816km
Actualización: 17/09/2014 07:00
Poco nuboso
Poco nuboso
 Viento de ESE
Viento: ESE 7 km/h
Temperatura: 21°C
Rocío: 18°C
Humedad: 83%
Barómetro: 1007 hPa
Nubes: Poco nuboso
Visibilidad: 10 km
Detalles de las nubes: Poco nuboso 610 m
2014/09/17 05:00 LEBL 170500Z 12004KT 100V160 9999 FEW020 21/18 Q1007 NOSIG
LEVC - Valencia, Spain
Distancia de la estación: ENE 535km
Actualización: 17/09/2014 07:00
Despejado
Despejado
 Viento de variable
Viento: variable 4 km/h
Temperatura: 21°C
Rocío: 19°C
Humedad: 88%
Barómetro: 1008 hPa
Resumen: Despejado
Visibilidad: mayor de 10 km
2014/09/17 05:00 LEVC 170500Z VRB02KT CAVOK 21/19 Q1008 NOSIG